createdAt,value
2023-02-11T00:02:52.238Z,49.55
2023-02-11T00:09:06.718Z,50.92
2023-02-11T00:12:12.463Z,50.45
2023-02-11T00:15:18.335Z,47.40
2023-02-11T00:21:29.014Z,46.30
2023-02-11T00:24:33.128Z,47.42
2023-02-11T00:27:41.626Z,47.25
2023-02-11T00:30:45.632Z,46.47
2023-02-11T00:33:51.875Z,54.45
2023-02-11T00:36:55.675Z,54.42
2023-02-11T00:40:01.543Z,54.42
2023-02-11T00:43:08.315Z,49.42
2023-02-11T00:46:14.653Z,45.75
2023-02-11T00:49:20.198Z,46.00
2023-02-11T00:52:27.752Z,38.00
2023-02-11T00:58:39.313Z,43.08
2023-02-11T01:01:43.250Z,43.67
2023-02-11T01:04:49.176Z,35.13
2023-02-11T01:11:00.593Z,40.70
2023-02-11T01:14:06.498Z,39.88
2023-02-11T01:17:12.696Z,47.92
2023-02-11T01:20:20.888Z,40.40
2023-02-11T01:23:27.170Z,46.08
2023-02-11T01:26:31.009Z,36.70
2023-02-11T01:29:39.392Z,37.33
2023-02-11T01:32:43.294Z,42.35
2023-02-11T01:35:50.086Z,36.70
2023-02-11T01:38:54.120Z,34.40
2023-02-11T01:42:00.016Z,35.08
2023-02-11T01:48:36.751Z,35.17
2023-02-11T01:52:04.838Z,32.25
2023-02-11T01:55:27.408Z,34.42
2023-02-11T01:58:37.795Z,37.60
2023-02-11T02:01:52.203Z,34.83
2023-02-11T02:05:01.285Z,34.92
2023-02-11T02:08:15.631Z,26.95
2023-02-11T02:11:19.655Z,35.60
2023-02-11T02:14:26.018Z,38.00
2023-02-11T02:17:42.761Z,31.25
2023-02-11T02:21:24.194Z,32.70
2023-02-11T02:24:51.717Z,30.25
2023-02-11T02:28:04.226Z,31.90
2023-02-11T02:31:36.181Z,23.58
2023-02-11T02:34:51.448Z,27.35
2023-02-11T02:38:02.634Z,29.48
2023-02-11T02:41:12.416Z,24.73
2023-02-11T02:44:16.233Z,23.60
2023-02-11T02:47:22.125Z,32.35
2023-02-11T02:50:32.856Z,28.73
2023-02-11T02:53:48.861Z,27.25
2023-02-11T02:56:57.888Z,32.50
2023-02-11T03:00:15.609Z,26.98
2023-02-11T03:03:30.233Z,28.63
2023-02-11T03:06:47.451Z,33.85
2023-02-11T03:09:56.436Z,30.67
2023-02-11T03:13:04.006Z,21.75
2023-02-11T03:16:11.184Z,23.20
2023-02-11T03:19:21.196Z,33.13
2023-02-11T03:22:29.294Z,31.55
2023-02-11T03:25:41.503Z,26.98
2023-02-11T03:28:52.450Z,31.38
2023-02-11T03:32:05.724Z,37.35
2023-02-11T03:35:13.140Z,22.20
2023-02-11T03:38:24.950Z,22.42
2023-02-11T03:41:30.863Z,25.08
2023-02-11T03:44:42.295Z,28.98
2023-02-11T03:47:51.388Z,26.65
2023-02-11T03:50:58.117Z,36.00
2023-02-11T03:54:07.288Z,28.50
2023-02-11T03:57:13.375Z,26.92
2023-02-11T04:00:17.820Z,35.83
2023-02-11T04:03:23.708Z,30.88
2023-02-11T04:06:27.499Z,41.30
2023-02-11T04:09:36.264Z,31.85
2023-02-11T04:12:40.128Z,36.00
2023-02-11T04:15:48.828Z,31.85
2023-02-11T04:18:52.891Z,35.22
2023-02-11T04:21:58.853Z,36.83
2023-02-11T04:28:10.755Z,26.90
2023-02-11T04:34:20.300Z,38.33
2023-02-11T04:37:24.133Z,32.15
2023-02-11T04:40:31.901Z,42.10
2023-02-11T04:43:35.693Z,32.40
2023-02-11T04:46:41.553Z,42.72
2023-02-11T04:49:45.462Z,29.27
2023-02-11T04:52:51.414Z,30.75
2023-02-11T04:59:03.911Z,30.67
2023-02-11T05:02:07.722Z,38.72
2023-02-11T05:05:13.615Z,34.80
2023-02-11T05:11:26.762Z,35.47
2023-02-11T05:14:30.560Z,32.88
2023-02-11T05:17:36.433Z,38.42
2023-02-11T05:20:40.316Z,28.15
2023-02-11T05:23:46.794Z,31.35
2023-02-11T05:26:52.618Z,31.95
2023-02-11T05:29:58.534Z,33.00
2023-02-11T05:36:10.401Z,37.42
2023-02-11T05:39:14.185Z,35.22
2023-02-11T05:42:22.097Z,45.22
2023-02-11T05:45:25.883Z,34.03
2023-02-11T05:48:32.188Z,38.42
2023-02-11T05:51:36.006Z,34.92
2023-02-11T05:54:41.984Z,35.33
2023-02-11T06:00:53.497Z,29.85
2023-02-11T06:07:03.380Z,38.72
2023-02-11T06:10:08.606Z,30.98
2023-02-11T06:13:17.992Z,39.70
2023-02-11T06:16:21.884Z,38.03
2023-02-11T06:19:27.738Z,37.88
2023-02-11T06:22:31.726Z,42.17
2023-02-11T06:25:38.361Z,31.02
2023-02-11T06:28:44.160Z,39.30
2023-02-11T06:31:50.193Z,35.90
2023-02-11T06:34:54.292Z,33.83
2023-02-11T06:38:00.244Z,42.25
2023-02-11T06:44:11.735Z,45.45
2023-02-11T06:47:15.566Z,44.05
2023-02-11T06:50:21.612Z,35.33
2023-02-11T06:53:25.544Z,45.33
2023-02-11T06:56:31.517Z,41.47
2023-02-11T06:59:37.296Z,46.60
2023-02-11T07:02:43.403Z,44.47
2023-02-11T07:05:47.385Z,42.25
2023-02-11T07:08:53.417Z,48.25
2023-02-11T07:15:05.143Z,37.58
2023-02-11T07:18:08.934Z,40.38
2023-02-11T07:21:17.159Z,43.22
2023-02-11T07:24:20.964Z,50.63
2023-02-11T07:27:26.854Z,45.55
2023-02-11T07:30:32.656Z,44.15
2023-02-11T07:33:39.218Z,36.75
2023-02-11T07:36:44.531Z,49.10
2023-02-11T07:39:50.425Z,52.67
2023-02-11T07:42:54.257Z,41.17
2023-02-11T07:46:05.080Z,43.33
2023-02-11T07:49:08.919Z,53.13
2023-02-11T07:52:14.788Z,58.25
2023-02-11T07:58:24.310Z,53.35
2023-02-11T08:01:30.960Z,56.13
2023-02-11T08:04:36.908Z,46.83
2023-02-11T08:10:46.414Z,42.53
2023-02-11T08:13:50.627Z,45.75
2023-02-11T08:16:58.685Z,52.08
2023-02-11T08:20:02.515Z,49.25
2023-02-11T08:23:08.681Z,52.55
2023-02-11T08:29:19.894Z,45.45
2023-02-11T08:35:32.471Z,54.15
2023-02-11T08:38:36.256Z,54.33
2023-02-11T08:41:42.125Z,45.67
2023-02-11T08:44:45.888Z,55.15
2023-02-11T08:47:53.652Z,43.92
2023-02-11T08:50:58.083Z,43.20
2023-02-11T08:54:03.943Z,47.05
2023-02-11T08:57:07.978Z,58.17
2023-02-11T09:00:15.899Z,47.80
2023-02-11T09:03:21.644Z,45.80
2023-02-11T09:06:29.152Z,46.22
2023-02-11T09:09:32.989Z,57.15
2023-02-11T09:12:38.885Z,46.28
2023-02-11T09:18:50.716Z,40.30
2023-02-11T09:21:54.533Z,46.20
2023-02-11T09:25:00.467Z,56.45
2023-02-11T09:31:11.477Z,55.78
2023-02-11T09:34:17.457Z,45.42
2023-02-11T09:37:23.273Z,46.50
2023-02-11T09:40:27.164Z,52.92
2023-02-11T09:43:38.736Z,49.38
2023-02-11T09:46:44.571Z,40.28
2023-02-11T09:49:55.189Z,53.47
2023-02-11T09:53:03.168Z,44.65
2023-02-11T09:56:13.556Z,55.22
2023-02-11T09:59:19.602Z,48.13
2023-02-11T10:02:30.954Z,42.88
2023-02-11T10:05:53.946Z,44.75
2023-02-11T10:09:09.789Z,36.47
2023-02-11T10:12:28.914Z,43.65
2023-02-11T10:15:43.805Z,43.67
2023-02-11T10:19:07.648Z,42.03
2023-02-11T10:22:22.870Z,47.30
2023-02-11T10:25:28.856Z,46.75
2023-02-11T10:28:38.336Z,38.47
2023-02-11T10:31:45.700Z,31.98
2023-02-11T10:34:52.829Z,41.53
2023-02-11T10:37:58.690Z,44.45
2023-02-11T10:41:04.849Z,42.17
2023-02-11T10:44:09.105Z,37.38
2023-02-11T10:47:20.409Z,37.35
2023-02-11T10:50:26.904Z,37.30
2023-02-11T10:53:35.190Z,34.55
2023-02-11T10:56:42.290Z,42.00
2023-02-11T10:59:49.060Z,32.97
2023-02-11T11:02:58.646Z,34.55
2023-02-11T11:06:07.822Z,34.85
2023-02-11T11:09:29.276Z,39.22
2023-02-11T11:12:42.081Z,35.13
2023-02-11T11:15:46.172Z,29.67
2023-02-11T11:18:53.490Z,33.17
2023-02-11T11:21:57.879Z,29.40
2023-02-11T11:25:05.834Z,31.23
2023-02-11T11:28:21.648Z,32.17
2023-02-11T11:31:31.374Z,29.90
2023-02-11T11:34:39.241Z,29.10
2023-02-11T11:37:45.500Z,29.10
2023-02-11T11:41:21.550Z,24.67
2023-02-11T11:44:31.515Z,24.58
2023-02-11T11:47:41.287Z,26.48
2023-02-11T11:50:51.530Z,29.70
2023-02-11T11:53:59.916Z,25.60
2023-02-11T11:57:16.285Z,25.33
2023-02-11T12:00:23.133Z,23.50
2023-02-11T12:04:01.804Z,24.50
2023-02-11T12:07:19.724Z,27.20
2023-02-11T12:10:49.889Z,22.90
2023-02-11T12:14:13.523Z,20.80
2023-02-11T12:17:31.154Z,26.20
2023-02-11T12:20:47.449Z,32.08
2023-02-11T12:24:07.174Z,28.35
2023-02-11T12:27:19.477Z,27.55
2023-02-11T12:30:46.384Z,27.48
2023-02-11T12:34:08.913Z,21.02
2023-02-11T12:37:27.081Z,37.35
2023-02-11T12:40:39.183Z,28.52
2023-02-11T12:43:46.612Z,20.13
2023-02-11T12:46:59.428Z,15.02
2023-02-11T12:50:14.986Z,22.98
2023-02-11T12:53:44.886Z,14.75
2023-02-11T12:56:55.597Z,18.33
2023-02-11T13:00:04.379Z,13.57
2023-02-11T13:03:19.054Z,17.30
2023-02-11T13:06:29.056Z,19.88
2023-02-11T13:09:43.473Z,9.02
2023-02-11T13:13:03.094Z,12.95
2023-02-11T13:16:22.300Z,17.10
2023-02-11T13:19:33.423Z,18.92
2023-02-11T13:22:45.507Z,12.45
2023-02-11T13:25:54.692Z,12.15
2023-02-11T13:29:17.476Z,11.07
2023-02-11T13:32:21.345Z,11.93
2023-02-11T13:35:34.107Z,9.88
2023-02-11T13:38:39.120Z,12.70
2023-02-11T13:41:50.337Z,11.05
2023-02-11T13:44:56.882Z,9.02
2023-02-11T13:48:05.699Z,12.73
2023-02-11T13:51:13.660Z,14.07
2023-02-11T13:54:29.769Z,17.75
2023-02-11T13:57:39.290Z,19.42
2023-02-11T14:00:48.878Z,11.85
2023-02-11T14:04:32.532Z,12.27
2023-02-11T14:07:53.484Z,16.25
2023-02-11T14:10:58.883Z,12.50
2023-02-11T14:14:19.222Z,14.48
2023-02-11T14:17:31.402Z,12.55
2023-02-11T14:23:45.200Z,11.00
2023-02-11T14:26:54.530Z,8.90
2023-02-11T14:30:12.462Z,15.30
2023-02-11T14:33:52.412Z,8.48
2023-02-11T14:37:07.788Z,15.02
2023-02-11T14:40:30.019Z,16.27
2023-02-11T14:43:39.970Z,12.68
2023-02-11T14:46:47.610Z,18.05
2023-02-11T14:49:52.263Z,12.43
2023-02-11T14:53:02.091Z,10.07
2023-02-11T14:56:19.769Z,12.18
2023-02-11T14:59:25.615Z,12.77
2023-02-11T15:02:33.784Z,15.00
2023-02-11T15:05:39.814Z,8.88
2023-02-11T15:11:54.173Z,14.80
2023-02-11T15:15:01.621Z,11.65
2023-02-11T15:18:09.021Z,13.85
2023-02-11T15:21:13.055Z,12.18
2023-02-11T15:24:28.633Z,15.30
2023-02-11T15:27:43.154Z,8.93
2023-02-11T15:30:49.239Z,9.68
2023-02-11T15:33:53.880Z,10.93
2023-02-11T15:36:59.764Z,11.00
2023-02-11T15:43:17.776Z,10.77
2023-02-11T15:46:23.647Z,10.02
2023-02-11T15:49:29.641Z,19.63
2023-02-11T15:55:43.038Z,9.63
2023-02-11T15:58:50.948Z,9.77
2023-02-11T16:01:59.094Z,12.35
2023-02-11T16:05:08.730Z,11.73
2023-02-11T16:08:25.268Z,8.02
2023-02-11T16:11:32.040Z,8.38
2023-02-11T16:14:40.243Z,9.80
2023-02-11T16:17:45.889Z,15.38
2023-02-11T16:20:52.511Z,12.75
2023-02-11T16:23:58.525Z,9.32
2023-02-11T16:27:06.099Z,16.60
2023-02-11T16:30:26.313Z,11.15
2023-02-11T16:33:32.332Z,16.42
2023-02-11T16:39:41.828Z,11.73
2023-02-11T16:42:45.616Z,7.05
2023-02-11T16:45:53.506Z,8.82
2023-02-11T16:48:57.988Z,18.33
2023-02-11T16:52:07.234Z,16.23
2023-02-11T16:55:11.944Z,9.80
2023-02-11T16:58:17.893Z,11.27
2023-02-11T17:04:33.023Z,7.50
2023-02-11T17:07:37.119Z,9.40
2023-02-11T17:10:43.011Z,12.23
2023-02-11T17:13:48.294Z,12.35
2023-02-11T17:16:56.035Z,10.93
2023-02-11T17:19:59.864Z,11.93
2023-02-11T17:23:05.784Z,23.10
2023-02-11T17:26:09.769Z,14.32
2023-02-11T17:29:17.172Z,16.80
2023-02-11T17:32:22.981Z,14.20
2023-02-11T17:35:29.125Z,10.38
2023-02-11T17:38:32.937Z,7.03
2023-02-11T17:41:39.877Z,9.95
2023-02-11T17:44:45.174Z,13.60
2023-02-11T17:47:52.921Z,18.30
2023-02-11T17:50:56.772Z,21.75
2023-02-11T17:54:04.756Z,18.92
2023-02-11T17:57:08.705Z,16.58
2023-02-11T18:00:16.448Z,10.98
2023-02-11T18:03:22.184Z,20.75
2023-02-11T18:06:28.484Z,16.58
2023-02-11T18:09:32.300Z,16.13
2023-02-11T18:12:38.144Z,16.08
2023-02-11T18:15:42.026Z,13.38
2023-02-11T18:18:49.879Z,12.70
2023-02-11T18:21:53.738Z,13.82
2023-02-11T18:24:59.705Z,17.10
2023-02-11T18:31:10.544Z,10.80
2023-02-11T18:34:16.783Z,13.02
2023-02-11T18:37:22.597Z,9.93
2023-02-11T18:40:26.435Z,9.50
2023-02-11T18:43:33.834Z,11.88
2023-02-11T18:46:37.696Z,8.60
2023-02-11T18:49:45.648Z,16.35
2023-02-11T18:52:49.529Z,11.70
2023-02-11T18:55:55.798Z,8.73
2023-02-11T18:59:00.660Z,13.57
2023-02-11T19:02:06.507Z,21.33
2023-02-11T19:05:12.561Z,13.82
2023-02-11T19:08:18.714Z,14.20
2023-02-11T19:11:43.263Z,12.30
2023-02-11T19:14:49.196Z,9.52
2023-02-11T19:17:53.126Z,16.35
2023-02-11T19:21:00.937Z,9.85
2023-02-11T19:24:08.876Z,14.63
2023-02-11T19:27:14.755Z,12.70
2023-02-11T19:33:24.508Z,12.05
2023-02-11T19:36:31.082Z,15.98
2023-02-11T19:39:36.902Z,16.10
2023-02-11T19:42:40.875Z,13.98
2023-02-11T19:45:46.748Z,15.50
2023-02-11T19:51:58.991Z,17.85
2023-02-11T19:55:02.806Z,11.90
2023-02-11T19:58:08.759Z,16.70
2023-02-11T20:01:14.531Z,19.23
2023-02-11T20:04:20.459Z,15.50
2023-02-11T20:07:26.253Z,11.55
2023-02-11T20:10:32.146Z,14.15
2023-02-11T20:16:48.557Z,18.17
2023-02-11T20:19:53.255Z,18.40
2023-02-11T20:23:00.990Z,16.58
2023-02-11T20:26:07.899Z,13.55
2023-02-11T20:29:13.813Z,14.27
2023-02-11T20:32:17.687Z,16.20
2023-02-11T20:35:23.497Z,12.60
2023-02-11T20:38:29.703Z,21.67
2023-02-11T20:41:39.051Z,19.58
2023-02-11T20:44:43.120Z,21.42
2023-02-11T20:47:48.952Z,14.82
2023-02-11T20:54:00.918Z,14.95
2023-02-11T20:57:04.878Z,15.05
2023-02-11T21:00:12.525Z,13.48
2023-02-11T21:03:16.569Z,12.50
2023-02-11T21:06:23.375Z,11.10
2023-02-11T21:09:31.509Z,19.77
2023-02-11T21:12:38.426Z,22.33
2023-02-11T21:15:42.255Z,12.45
2023-02-11T21:18:48.490Z,21.60
2023-02-11T21:21:52.334Z,14.80
2023-02-11T21:25:00.435Z,17.95
2023-02-11T21:28:04.337Z,20.60
2023-02-11T21:31:18.987Z,19.23
2023-02-11T21:34:22.905Z,18.10
2023-02-11T21:37:28.736Z,16.08
2023-02-11T21:40:34.497Z,15.23
2023-02-11T21:43:40.475Z,11.48
2023-02-11T21:49:50.025Z,15.57
2023-02-11T21:52:53.829Z,14.20
2023-02-11T21:56:07.208Z,24.38
2023-02-11T21:59:13.944Z,16.08
2023-02-11T22:02:19.807Z,15.85
2023-02-11T22:05:23.644Z,19.60
2023-02-11T22:08:32.120Z,18.77
2023-02-11T22:11:38.345Z,12.95
2023-02-11T22:14:44.502Z,17.75
2023-02-11T22:17:48.291Z,18.33
2023-02-11T22:20:59.870Z,15.32
2023-02-11T22:24:03.704Z,18.65
2023-02-11T22:27:11.488Z,17.05
2023-02-11T22:30:15.721Z,17.70
2023-02-11T22:33:21.583Z,18.08
2023-02-11T22:36:26.979Z,17.10
2023-02-11T22:39:32.905Z,18.92
2023-02-11T22:45:44.327Z,22.80
2023-02-11T22:48:48.448Z,24.73
2023-02-11T22:51:54.328Z,29.08
2023-02-11T22:54:59.796Z,20.83
2023-02-11T22:58:08.143Z,24.23
2023-02-11T23:01:12.361Z,28.65
2023-02-11T23:04:20.280Z,19.60
2023-02-11T23:07:24.101Z,19.35
2023-02-11T23:10:29.987Z,20.83
2023-02-11T23:13:37.317Z,26.55
2023-02-11T23:16:43.279Z,27.60
2023-02-11T23:19:47.399Z,26.13
2023-02-11T23:22:53.278Z,27.85
2023-02-11T23:29:05.475Z,27.58
2023-02-11T23:32:09.467Z,21.35
2023-02-11T23:35:21.484Z,27.02
2023-02-11T23:38:25.284Z,23.45
2023-02-11T23:41:31.166Z,23.95
2023-02-11T23:44:36.894Z,25.48
2023-02-11T23:47:43.045Z,23.48
2023-02-11T23:50:47.666Z,20.85
2023-02-11T23:53:55.497Z,20.83
2023-02-11T23:56:59.402Z,27.73
